createdAt,value
2022-09-11T00:02:10.298Z,99.90
2022-09-11T00:04:40.177Z,99.90
2022-09-11T00:07:10.222Z,99.90
2022-09-11T00:09:40.356Z,99.90
2022-09-11T00:12:07.693Z,99.90
2022-09-11T00:14:37.105Z,99.90
2022-09-11T00:17:07.037Z,99.90
2022-09-11T00:19:35.594Z,99.90
2022-09-11T00:22:02.847Z,99.90
2022-09-11T00:24:30.101Z,99.90
2022-09-11T00:26:57.312Z,99.90
2022-09-11T00:29:27.207Z,99.90
2022-09-11T00:31:57.722Z,99.90
2022-09-11T00:34:24.944Z,99.90
2022-09-11T00:36:54.736Z,99.90
2022-09-11T00:39:24.072Z,99.90
2022-09-11T00:41:51.322Z,99.90
2022-09-11T00:44:28.269Z,99.90
2022-09-11T00:47:00.990Z,99.90
2022-09-11T00:49:46.563Z,99.90
2022-09-11T00:52:36.096Z,99.90
2022-09-11T00:55:12.681Z,99.90
2022-09-11T00:57:49.614Z,99.90
2022-09-11T01:00:17.460Z,99.90
2022-09-11T01:02:48.394Z,99.90
2022-09-11T01:05:18.513Z,99.90
2022-09-11T01:07:47.751Z,99.90
2022-09-11T01:10:15.116Z,99.90
2022-09-11T01:13:00.970Z,99.90
2022-09-11T01:15:38.408Z,99.90
2022-09-11T01:18:18.776Z,99.90
2022-09-11T01:21:23.058Z,99.90
2022-09-11T01:24:09.273Z,99.90
2022-09-11T01:26:55.633Z,99.90
2022-09-11T01:29:33.234Z,99.90
2022-09-11T01:32:18.867Z,99.90
2022-09-11T01:35:00.323Z,99.90
2022-09-11T01:37:42.967Z,99.90
2022-09-11T01:40:29.785Z,99.90
2022-09-11T01:43:07.092Z,99.90
2022-09-11T01:45:37.311Z,99.90
2022-09-11T01:48:06.261Z,99.90
2022-09-11T01:50:39.965Z,99.90
2022-09-11T01:53:10.568Z,99.90
2022-09-11T01:55:45.160Z,99.90
2022-09-11T01:58:25.116Z,99.90
2022-09-11T02:00:56.761Z,99.90
2022-09-11T02:03:43.223Z,99.90
2022-09-11T02:06:21.376Z,99.90
2022-09-11T02:08:50.552Z,99.90
2022-09-11T02:11:20.895Z,99.90
2022-09-11T02:14:06.581Z,99.90
2022-09-11T02:17:00.072Z,99.90
2022-09-11T02:19:29.540Z,99.90
2022-09-11T02:21:58.547Z,99.90
2022-09-11T02:24:27.811Z,99.90
2022-09-11T02:27:00.627Z,99.90
2022-09-11T02:29:28.103Z,99.90
2022-09-11T02:31:56.347Z,99.90
2022-09-11T02:34:32.103Z,99.90
2022-09-11T02:37:14.435Z,99.90
2022-09-11T02:40:13.624Z,99.90
2022-09-11T02:43:12.067Z,99.90
2022-09-11T02:45:57.982Z,99.90
2022-09-11T02:48:46.126Z,99.90
2022-09-11T02:51:34.793Z,99.90
2022-09-11T02:54:19.180Z,99.90
2022-09-11T02:56:56.896Z,99.90
2022-09-11T02:59:30.258Z,99.90
2022-09-11T03:02:02.153Z,99.90
2022-09-11T03:04:31.463Z,99.90
2022-09-11T03:06:59.490Z,99.90
2022-09-11T03:09:26.735Z,99.90
2022-09-11T03:11:55.012Z,99.90
2022-09-11T03:14:24.660Z,99.90
2022-09-11T03:16:52.315Z,99.90
2022-09-11T03:19:21.680Z,99.90
2022-09-11T03:21:51.576Z,99.90
2022-09-11T03:24:21.274Z,99.90
2022-09-11T03:26:49.037Z,99.90
2022-09-11T03:29:16.219Z,99.90
2022-09-11T03:31:43.646Z,99.90
2022-09-11T03:34:10.870Z,99.90
2022-09-11T03:36:38.068Z,99.90
2022-09-11T03:39:06.127Z,99.90
2022-09-11T03:41:35.907Z,99.90
2022-09-11T03:44:06.659Z,99.90
2022-09-11T03:46:36.540Z,99.90
2022-09-11T03:49:03.837Z,99.90
2022-09-11T03:51:35.764Z,99.90
2022-09-11T03:54:03.397Z,99.90
2022-09-11T03:56:30.823Z,99.90
2022-09-11T03:59:00.953Z,99.90
2022-09-11T04:01:29.082Z,99.90
2022-09-11T04:03:58.739Z,99.90
2022-09-11T04:06:25.946Z,99.90
2022-09-11T04:08:55.603Z,99.90
2022-09-11T04:11:22.886Z,99.90
2022-09-11T04:13:51.212Z,99.90
2022-09-11T04:16:20.334Z,99.90
2022-09-11T04:18:49.385Z,99.90
2022-09-11T04:21:18.597Z,99.90
2022-09-11T04:23:50.458Z,99.90
2022-09-11T04:26:20.220Z,99.90
2022-09-11T04:28:47.941Z,99.90
2022-09-11T04:31:18.926Z,99.90
2022-09-11T04:33:46.968Z,99.90
2022-09-11T04:36:19.587Z,99.90
2022-09-11T04:38:47.881Z,99.90
2022-09-11T04:41:16.871Z,99.90
2022-09-11T04:43:44.563Z,99.90
2022-09-11T04:46:14.268Z,99.90
2022-09-11T04:48:46.671Z,99.90
2022-09-11T04:51:30.199Z,99.90
2022-09-11T04:53:58.774Z,99.90
2022-09-11T04:56:30.030Z,99.90
2022-09-11T04:59:00.234Z,99.90
2022-09-11T05:01:31.212Z,99.90
2022-09-11T05:04:00.680Z,99.90
2022-09-11T05:06:31.118Z,99.90
2022-09-11T05:09:03.928Z,99.90
2022-09-11T05:11:33.907Z,99.90
2022-09-11T05:14:01.701Z,99.90
2022-09-11T05:16:30.826Z,99.90
2022-09-11T05:18:59.384Z,99.90
2022-09-11T05:21:28.230Z,99.90
2022-09-11T05:23:57.904Z,99.90
2022-09-11T05:26:30.752Z,99.90
2022-09-11T05:29:02.745Z,99.90
2022-09-11T05:31:32.726Z,99.90
2022-09-11T05:34:00.642Z,99.90
2022-09-11T05:36:31.108Z,99.90
2022-09-11T05:39:02.588Z,99.90
2022-09-11T05:41:30.518Z,99.90
2022-09-11T05:44:01.752Z,99.90
2022-09-11T05:46:32.108Z,99.90
2022-09-11T05:48:59.661Z,99.90
2022-09-11T05:51:26.873Z,99.90
2022-09-11T05:53:56.078Z,99.90
2022-09-11T05:56:26.266Z,99.90
2022-09-11T05:58:53.496Z,99.90
2022-09-11T06:01:23.217Z,99.90
2022-09-11T06:03:55.274Z,99.90
2022-09-11T06:06:24.130Z,99.90
2022-09-11T06:08:53.902Z,99.90
2022-09-11T06:11:22.063Z,99.90
2022-09-11T06:13:49.642Z,99.90
2022-09-11T06:16:22.172Z,99.90
2022-09-11T06:18:51.122Z,99.90
2022-09-11T06:21:20.851Z,99.90
2022-09-11T06:23:49.809Z,99.90
2022-09-11T06:26:23.136Z,99.90
2022-09-11T06:28:53.916Z,99.90
2022-09-11T06:31:25.793Z,99.90
2022-09-11T06:33:53.462Z,99.90
2022-09-11T06:36:27.749Z,99.90
2022-09-11T06:38:57.118Z,99.90
2022-09-11T06:41:26.598Z,99.90
2022-09-11T06:43:57.282Z,99.90
2022-09-11T06:46:29.436Z,99.90
2022-09-11T06:48:59.054Z,99.90
2022-09-11T06:51:27.109Z,99.90
2022-09-11T06:53:59.174Z,99.90
2022-09-11T06:56:26.543Z,99.90
2022-09-11T06:58:56.125Z,99.90
2022-09-11T07:01:26.166Z,99.90
2022-09-11T07:03:57.041Z,99.90
2022-09-11T07:06:30.226Z,99.90
2022-09-11T07:09:02.514Z,99.90
2022-09-11T07:11:35.253Z,99.90
2022-09-11T07:14:06.405Z,99.90
2022-09-11T07:16:34.824Z,99.90
2022-09-11T07:19:05.763Z,99.90
2022-09-11T07:21:35.555Z,99.90
2022-09-11T07:24:05.761Z,99.90
2022-09-11T07:26:33.097Z,99.90
2022-09-11T07:29:00.808Z,99.90
2022-09-11T07:31:33.141Z,99.90
2022-09-11T07:34:02.762Z,99.90
2022-09-11T07:36:34.711Z,99.90
2022-09-11T07:39:03.669Z,99.90
2022-09-11T07:41:33.095Z,99.90
2022-09-11T07:44:01.267Z,99.90
2022-09-11T07:46:31.213Z,99.90
2022-09-11T07:49:03.002Z,99.90
2022-09-11T07:51:33.287Z,99.90
2022-09-11T07:54:01.263Z,99.90
2022-09-11T07:56:29.034Z,99.90
2022-09-11T07:59:01.968Z,99.90
2022-09-11T08:01:30.927Z,99.90
2022-09-11T08:04:01.288Z,99.90
2022-09-11T08:06:32.557Z,99.90
2022-09-11T08:09:03.671Z,99.90
2022-09-11T08:11:32.480Z,99.90
2022-09-11T08:13:59.745Z,99.90
2022-09-11T08:16:28.813Z,99.90
2022-09-11T08:18:56.977Z,99.90
2022-09-11T08:21:27.288Z,99.90
2022-09-11T08:23:54.962Z,99.90
2022-09-11T08:26:24.786Z,99.90
2022-09-11T08:28:54.422Z,99.90
2022-09-11T08:31:28.354Z,99.90
2022-09-11T08:33:56.522Z,99.90
2022-09-11T08:36:24.433Z,99.90
2022-09-11T08:38:52.626Z,99.90
2022-09-11T08:41:41.096Z,99.90
2022-09-11T08:44:15.169Z,99.90
2022-09-11T08:46:51.078Z,99.90
2022-09-11T08:49:25.147Z,99.90
2022-09-11T08:51:58.583Z,99.90
2022-09-11T08:54:28.124Z,99.90
2022-09-11T08:57:19.020Z,99.90
2022-09-11T09:00:05.394Z,99.90
2022-09-11T09:03:03.567Z,99.90
2022-09-11T09:06:02.858Z,99.90
2022-09-11T09:08:50.150Z,99.90
2022-09-11T09:11:29.081Z,99.90
2022-09-11T09:14:24.876Z,99.90
2022-09-11T09:17:05.125Z,99.90
2022-09-11T09:20:00.477Z,99.90
2022-09-11T09:22:39.512Z,99.90
2022-09-11T09:25:14.074Z,99.90
2022-09-11T09:27:54.202Z,99.90
2022-09-11T09:30:27.665Z,99.90
2022-09-11T09:33:00.076Z,99.90
2022-09-11T09:35:39.611Z,99.90
2022-09-11T09:38:21.856Z,99.90
2022-09-11T09:41:36.381Z,99.90
2022-09-11T09:44:36.453Z,99.90
2022-09-11T09:47:04.327Z,99.90
2022-09-11T09:49:37.600Z,99.90
2022-09-11T09:52:24.470Z,99.90
2022-09-11T09:55:06.787Z,99.90
2022-09-11T09:57:36.874Z,99.90
2022-09-11T10:00:07.596Z,99.90
2022-09-11T10:02:53.957Z,99.90
2022-09-11T10:05:40.640Z,99.90
2022-09-11T10:08:33.731Z,99.90
2022-09-11T10:11:07.932Z,99.90
2022-09-11T10:13:43.685Z,99.90
2022-09-11T10:16:27.861Z,99.90
2022-09-11T10:18:56.424Z,99.90
2022-09-11T10:21:41.583Z,99.90
2022-09-11T10:24:18.014Z,99.90
2022-09-11T10:26:50.856Z,99.90
2022-09-11T10:29:24.227Z,99.90
2022-09-11T10:31:55.941Z,99.90
2022-09-11T10:34:27.197Z,99.90
2022-09-11T10:37:00.501Z,99.90
2022-09-11T10:39:31.776Z,99.90
2022-09-11T10:42:07.501Z,99.90
2022-09-11T10:44:34.796Z,99.90
2022-09-11T10:47:08.092Z,99.90
2022-09-11T10:49:36.162Z,99.90
2022-09-11T10:52:09.631Z,99.90
2022-09-11T10:55:01.907Z,99.90
2022-09-11T10:57:44.325Z,99.90
2022-09-11T11:00:14.491Z,99.90
2022-09-11T11:02:46.549Z,99.90
2022-09-11T11:05:20.732Z,99.90
2022-09-11T11:08:20.702Z,99.90
2022-09-11T11:11:05.755Z,99.90
2022-09-11T11:13:36.092Z,99.90
2022-09-11T11:16:11.047Z,99.90
2022-09-11T11:18:53.881Z,99.90
2022-09-11T11:21:46.912Z,99.90
2022-09-11T11:24:27.592Z,99.90
2022-09-11T11:27:04.642Z,99.90
2022-09-11T11:30:14.541Z,99.90
2022-09-11T11:33:12.546Z,99.90
2022-09-11T11:36:04.335Z,99.90
2022-09-11T11:38:46.750Z,99.90
2022-09-11T11:41:38.499Z,99.90
2022-09-11T11:44:12.245Z,99.80
2022-09-11T11:46:45.182Z,99.20
2022-09-11T11:49:23.491Z,99.90
2022-09-11T11:52:05.849Z,99.80
2022-09-11T11:54:46.600Z,99.60
2022-09-11T11:57:22.260Z,99.90
2022-09-11T11:59:59.399Z,99.80
2022-09-11T12:02:33.801Z,99.90
2022-09-11T12:05:11.385Z,99.90
2022-09-11T12:07:41.975Z,99.90
2022-09-11T12:10:30.834Z,99.90
2022-09-11T12:13:03.625Z,99.90
2022-09-11T12:15:37.558Z,99.90
2022-09-11T12:18:25.456Z,99.90
2022-09-11T12:20:53.299Z,99.90
2022-09-11T12:23:34.784Z,99.90
2022-09-11T12:26:13.598Z,99.90
2022-09-11T12:28:41.522Z,99.90
2022-09-11T12:31:13.814Z,99.90
2022-09-11T12:33:41.059Z,99.90
2022-09-11T12:36:13.262Z,99.90
2022-09-11T12:38:45.372Z,99.90
2022-09-11T12:41:17.329Z,99.90
2022-09-11T12:43:49.443Z,99.90
2022-09-11T12:46:22.495Z,99.90
2022-09-11T12:49:20.465Z,99.90
2022-09-11T12:51:55.169Z,95.60
2022-09-11T12:54:33.490Z,93.70
2022-09-11T12:57:05.715Z,95.20
2022-09-11T12:59:38.016Z,95.30
2022-09-11T13:02:27.948Z,96.40
2022-09-11T13:04:58.728Z,95.00
2022-09-11T13:07:30.415Z,91.30
2022-09-11T13:10:08.027Z,89.70
2022-09-11T13:12:35.232Z,90.30
2022-09-11T13:15:02.551Z,90.80
2022-09-11T13:17:33.752Z,89.50
2022-09-11T13:20:10.147Z,88.50
2022-09-11T13:22:38.540Z,82.40
2022-09-11T13:25:21.161Z,84.80
2022-09-11T13:27:54.425Z,83.10
2022-09-11T13:30:22.822Z,83.50
2022-09-11T13:33:17.128Z,85.60
2022-09-11T13:35:49.573Z,85.80
2022-09-11T13:38:28.399Z,87.60
2022-09-11T13:41:07.740Z,87.60
2022-09-11T13:43:45.767Z,86.50
2022-09-11T13:46:16.204Z,85.60
2022-09-11T13:48:53.166Z,86.10
2022-09-11T13:51:28.294Z,89.30
2022-09-11T13:54:12.860Z,84.30
2022-09-11T13:57:11.691Z,87.50
2022-09-11T13:59:51.861Z,85.00
2022-09-11T14:02:49.524Z,84.00
2022-09-11T14:05:26.606Z,84.40
2022-09-11T14:08:07.671Z,81.70
2022-09-11T14:10:47.081Z,83.80
2022-09-11T14:13:27.636Z,82.80
2022-09-11T14:16:35.982Z,87.30
2022-09-11T14:19:17.878Z,86.60
2022-09-11T14:21:49.869Z,90.30
2022-09-11T14:24:29.780Z,91.10
2022-09-11T14:27:00.259Z,91.20
2022-09-11T14:29:37.433Z,91.50
2022-09-11T14:32:37.764Z,90.40
2022-09-11T14:35:07.988Z,90.10
2022-09-11T14:37:41.883Z,89.40
2022-09-11T14:40:18.030Z,86.80
2022-09-11T14:42:45.710Z,89.30
2022-09-11T14:45:26.096Z,88.80
2022-09-11T14:47:55.850Z,86.20
2022-09-11T14:50:25.522Z,87.20
2022-09-11T14:52:55.550Z,87.60
2022-09-11T14:55:22.970Z,86.20
2022-09-11T14:57:50.914Z,84.30
2022-09-11T15:00:19.210Z,86.20
2022-09-11T15:02:47.807Z,84.50
2022-09-11T15:05:21.630Z,86.60
2022-09-11T15:07:53.044Z,88.20
2022-09-11T15:10:20.385Z,83.50
2022-09-11T15:12:49.170Z,86.40
2022-09-11T15:15:17.706Z,87.90
2022-09-11T15:17:47.053Z,85.70
2022-09-11T15:20:14.841Z,90.10
2022-09-11T15:22:42.134Z,90.80
2022-09-11T15:25:10.205Z,90.80
2022-09-11T15:27:38.175Z,91.70
2022-09-11T15:30:06.446Z,89.60
2022-09-11T15:32:36.194Z,90.00
2022-09-11T15:35:03.752Z,92.00
2022-09-11T15:37:31.351Z,90.80
2022-09-11T15:39:58.970Z,90.40
2022-09-11T15:42:27.021Z,90.50
2022-09-11T15:44:56.895Z,90.30
2022-09-11T15:47:24.578Z,91.50
2022-09-11T15:49:51.875Z,90.10
2022-09-11T15:52:19.576Z,90.80
2022-09-11T15:54:48.844Z,91.90
2022-09-11T15:57:16.662Z,92.50
2022-09-11T15:59:46.609Z,92.80
2022-09-11T16:02:14.834Z,91.50
2022-09-11T16:04:42.624Z,89.20
2022-09-11T16:07:15.035Z,89.70
2022-09-11T16:09:42.369Z,90.30
2022-09-11T16:12:09.644Z,90.00
2022-09-11T16:14:39.767Z,90.10
2022-09-11T16:17:08.134Z,90.40
2022-09-11T16:19:39.271Z,90.80
2022-09-11T16:22:11.302Z,90.90
2022-09-11T16:24:39.098Z,91.40
2022-09-11T16:27:08.204Z,91.00
2022-09-11T16:30:09.171Z,91.30
2022-09-11T16:32:29.109Z,92.30
2022-09-11T16:34:59.614Z,93.20
2022-09-11T16:37:31.049Z,92.80
2022-09-11T16:39:58.830Z,92.80
2022-09-11T16:42:26.380Z,94.70
2022-09-11T16:44:54.157Z,93.50
2022-09-11T16:47:22.330Z,92.60
2022-09-11T16:50:06.450Z,93.20
2022-09-11T16:52:35.398Z,92.90
2022-09-11T16:55:07.240Z,93.40
2022-09-11T16:57:35.182Z,93.30
2022-09-11T17:00:03.714Z,94.10
2022-09-11T17:02:31.072Z,94.20
2022-09-11T17:04:58.412Z,95.10
2022-09-11T17:07:25.665Z,95.40
2022-09-11T17:09:55.809Z,96.40
2022-09-11T17:12:23.477Z,95.80
2022-09-11T17:14:53.094Z,96.10
2022-09-11T17:17:23.258Z,96.40
2022-09-11T17:19:51.195Z,96.80
2022-09-11T17:22:20.929Z,97.00
2022-09-11T17:24:48.252Z,97.70
2022-09-11T17:27:15.573Z,98.00
2022-09-11T17:29:44.758Z,98.40
2022-09-11T17:32:27.967Z,98.40
2022-09-11T17:34:55.913Z,98.90
2022-09-11T17:37:23.224Z,99.60
2022-09-11T17:39:50.543Z,99.90
2022-09-11T17:42:18.324Z,99.90
2022-09-11T17:44:47.949Z,99.90
2022-09-11T17:47:15.698Z,99.90
2022-09-11T17:49:45.551Z,99.90
2022-09-11T17:52:15.573Z,99.90
2022-09-11T17:54:42.816Z,99.90
2022-09-11T17:57:10.274Z,99.90
2022-09-11T17:59:39.671Z,99.90
2022-09-11T18:02:10.378Z,99.90
2022-09-11T18:04:38.465Z,99.90
2022-09-11T18:07:08.184Z,99.90
2022-09-11T18:09:35.565Z,99.90
2022-09-11T18:12:03.625Z,99.90
2022-09-11T18:14:31.523Z,99.90
2022-09-11T18:16:59.929Z,99.90
2022-09-11T18:19:29.889Z,99.90
2022-09-11T18:21:57.536Z,99.90
2022-09-11T18:24:29.652Z,99.90
2022-09-11T18:27:00.748Z,99.90
2022-09-11T18:29:30.353Z,99.90
2022-09-11T18:31:59.917Z,99.90
2022-09-11T18:34:28.521Z,99.90
2022-09-11T18:36:59.983Z,99.90
2022-09-11T18:39:27.514Z,99.90
2022-09-11T18:41:55.398Z,99.90
2022-09-11T18:44:24.632Z,99.90
2022-09-11T18:46:57.742Z,99.90
2022-09-11T18:49:25.464Z,99.90
2022-09-11T18:51:55.160Z,99.90
2022-09-11T18:54:23.089Z,99.90
2022-09-11T18:56:53.103Z,99.90
2022-09-11T18:59:20.380Z,99.90
2022-09-11T19:01:50.472Z,99.90
2022-09-11T19:04:19.053Z,99.90
2022-09-11T19:06:47.176Z,99.90
2022-09-11T19:09:14.757Z,99.90
2022-09-11T19:11:42.505Z,99.90
2022-09-11T19:14:13.284Z,99.90
2022-09-11T19:16:41.474Z,99.90
2022-09-11T19:19:09.585Z,99.90
2022-09-11T19:21:39.861Z,99.90
2022-09-11T19:24:08.091Z,99.90
2022-09-11T19:26:38.867Z,99.90
2022-09-11T19:29:08.615Z,99.90
2022-09-11T19:31:37.364Z,99.90
2022-09-11T19:34:05.427Z,99.90
2022-09-11T19:36:35.246Z,99.90
2022-09-11T19:39:05.649Z,99.90
2022-09-11T19:41:38.411Z,99.90
2022-09-11T19:44:08.593Z,99.90
2022-09-11T19:46:38.123Z,99.90
2022-09-11T19:49:08.225Z,99.90
2022-09-11T19:51:45.504Z,99.90
2022-09-11T19:54:14.377Z,99.90
2022-09-11T19:56:45.074Z,99.90
2022-09-11T19:59:14.318Z,99.90
2022-09-11T20:01:42.971Z,99.90
2022-09-11T20:04:12.355Z,99.90
2022-09-11T20:06:39.617Z,99.90
2022-09-11T20:09:32.091Z,99.90
2022-09-11T20:12:01.105Z,99.90
2022-09-11T20:14:32.654Z,99.90
2022-09-11T20:17:00.989Z,99.90
2022-09-11T20:19:28.595Z,99.90
2022-09-11T20:21:57.987Z,99.90
2022-09-11T20:24:28.983Z,99.90
2022-09-11T20:26:57.567Z,99.90
2022-09-11T20:29:25.414Z,99.90
2022-09-11T20:31:54.721Z,99.90
2022-09-11T20:34:27.479Z,99.90
2022-09-11T20:36:56.742Z,99.90
2022-09-11T20:39:26.469Z,99.90
2022-09-11T20:41:53.727Z,99.90
2022-09-11T20:44:24.426Z,99.90
2022-09-11T20:46:51.724Z,99.90
2022-09-11T20:49:18.997Z,99.90
2022-09-11T20:51:46.202Z,99.90
2022-09-11T20:54:13.609Z,99.90
2022-09-11T20:56:41.541Z,99.90
2022-09-11T20:59:08.818Z,99.90
2022-09-11T21:01:36.362Z,99.90
2022-09-11T21:04:04.732Z,99.90
2022-09-11T21:06:34.199Z,99.90
2022-09-11T21:09:06.886Z,99.90
2022-09-11T21:11:35.510Z,99.90
2022-09-11T21:14:02.946Z,99.90
2022-09-11T21:16:33.150Z,99.90
2022-09-11T21:19:03.876Z,99.90
2022-09-11T21:21:32.620Z,99.90
2022-09-11T21:24:05.830Z,99.90
2022-09-11T21:26:34.407Z,99.90
2022-09-11T21:29:06.835Z,99.90
2022-09-11T21:31:36.987Z,99.90
2022-09-11T21:34:05.132Z,99.90
2022-09-11T21:36:33.634Z,99.90
2022-09-11T21:39:00.854Z,99.90
2022-09-11T21:41:28.127Z,99.90
2022-09-11T21:44:00.040Z,99.90
2022-09-11T21:46:27.386Z,99.90
2022-09-11T21:48:54.836Z,99.90
2022-09-11T21:51:22.293Z,99.90
2022-09-11T21:53:54.514Z,99.90
2022-09-11T21:56:29.107Z,99.90
2022-09-11T21:58:57.254Z,99.90
2022-09-11T22:01:26.429Z,99.90
2022-09-11T22:03:54.600Z,99.90
2022-09-11T22:06:24.680Z,99.90
2022-09-11T22:08:53.370Z,99.90
2022-09-11T22:11:21.188Z,99.90
2022-09-11T22:13:52.915Z,99.90
2022-09-11T22:16:21.533Z,99.90
2022-09-11T22:18:51.085Z,99.90
2022-09-11T22:21:18.781Z,99.90
2022-09-11T22:23:48.514Z,99.90
2022-09-11T22:26:18.502Z,99.90
2022-09-11T22:28:46.005Z,99.90
2022-09-11T22:31:19.102Z,99.90
2022-09-11T22:33:47.002Z,99.90
2022-09-11T22:36:20.833Z,99.90
2022-09-11T22:38:49.442Z,99.90
2022-09-11T22:41:19.744Z,99.90
2022-09-11T22:43:53.002Z,99.90
2022-09-11T22:46:20.965Z,99.90
2022-09-11T22:48:48.408Z,99.90
2022-09-11T22:51:16.633Z,99.90
2022-09-11T22:53:46.766Z,99.90
2022-09-11T22:56:14.290Z,99.90
2022-09-11T22:58:43.899Z,99.90
2022-09-11T23:01:13.286Z,99.90
2022-09-11T23:03:43.002Z,99.90
2022-09-11T23:06:29.816Z,99.90
2022-09-11T23:08:57.262Z,99.90
2022-09-11T23:11:25.290Z,99.90
2022-09-11T23:13:52.935Z,99.90
2022-09-11T23:16:23.083Z,99.90
2022-09-11T23:18:58.103Z,99.90
2022-09-11T23:21:26.664Z,99.90
2022-09-11T23:23:58.245Z,99.90
2022-09-11T23:26:28.397Z,99.90
2022-09-11T23:28:56.132Z,99.90
2022-09-11T23:31:29.127Z,99.90
2022-09-11T23:34:00.512Z,99.90
2022-09-11T23:36:29.377Z,99.90
2022-09-11T23:38:57.538Z,99.90
2022-09-11T23:41:28.087Z,99.90
2022-09-11T23:43:58.103Z,99.90
2022-09-11T23:46:26.156Z,99.90
2022-09-11T23:48:53.418Z,99.90
2022-09-11T23:51:21.243Z,99.90
2022-09-11T23:53:51.593Z,99.90
2022-09-11T23:56:19.418Z,99.90
2022-09-11T23:58:46.825Z,99.90
